sensor_id;sensor_type;location;lat;lon;timestamp;P1;durP1;ratioP1;P2;durP2;ratioP2
6031;SDS011;3044;43.232;27.972;2022-12-20T00:01:52;19.40;;;11.07;;
6031;SDS011;3044;43.232;27.972;2022-12-20T00:04:19;24.47;;;12.93;;
6031;SDS011;3044;43.232;27.972;2022-12-20T00:06:47;21.90;;;11.93;;
6031;SDS011;3044;43.232;27.972;2022-12-20T00:09:14;20.80;;;11.37;;
6031;SDS011;3044;43.232;27.972;2022-12-20T00:11:41;18.57;;;11.53;;
6031;SDS011;3044;43.232;27.972;2022-12-20T00:14:09;20.83;;;10.97;;
6031;SDS011;3044;43.232;27.972;2022-12-20T00:16:36;20.63;;;11.60;;
6031;SDS011;3044;43.232;27.972;2022-12-20T00:19:05;28.33;;;12.37;;
6031;SDS011;3044;43.232;27.972;2022-12-20T00:21:33;22.37;;;13.13;;
6031;SDS011;3044;43.232;27.972;2022-12-20T00:24:02;23.27;;;12.30;;
6031;SDS011;3044;43.232;27.972;2022-12-20T00:26:31;18.47;;;10.80;;
6031;SDS011;3044;43.232;27.972;2022-12-20T00:28:59;23.03;;;12.07;;
6031;SDS011;3044;43.232;27.972;2022-12-20T00:31:27;19.27;;;11.10;;
6031;SDS011;3044;43.232;27.972;2022-12-20T00:33:56;23.73;;;13.77;;
6031;SDS011;3044;43.232;27.972;2022-12-20T00:36:25;23.43;;;11.93;;
6031;SDS011;3044;43.232;27.972;2022-12-20T00:38:54;19.80;;;11.10;;
6031;SDS011;3044;43.232;27.972;2022-12-20T00:41:24;27.40;;;13.73;;
6031;SDS011;3044;43.232;27.972;2022-12-20T00:43:53;23.63;;;13.53;;
6031;SDS011;3044;43.232;27.972;2022-12-20T00:46:20;26.33;;;12.20;;
6031;SDS011;3044;43.232;27.972;2022-12-20T00:48:48;27.37;;;11.93;;
6031;SDS011;3044;43.232;27.972;2022-12-20T00:51:16;19.93;;;10.50;;
6031;SDS011;3044;43.232;27.972;2022-12-20T00:53:46;20.30;;;10.50;;
6031;SDS011;3044;43.232;27.972;2022-12-20T00:56:13;27.53;;;12.40;;
6031;SDS011;3044;43.232;27.972;2022-12-20T00:58:42;21.40;;;11.63;;
6031;SDS011;3044;43.232;27.972;2022-12-20T01:01:14;21.97;;;12.90;;
6031;SDS011;3044;43.232;27.972;2022-12-20T01:03:44;22.50;;;12.17;;
6031;SDS011;3044;43.232;27.972;2022-12-20T01:06:11;24.80;;;12.97;;
6031;SDS011;3044;43.232;27.972;2022-12-20T01:08:38;26.73;;;13.40;;
6031;SDS011;3044;43.232;27.972;2022-12-20T01:11:06;21.87;;;12.00;;
6031;SDS011;3044;43.232;27.972;2022-12-20T01:13:36;26.03;;;11.53;;
6031;SDS011;3044;43.232;27.972;2022-12-20T01:16:07;26.77;;;12.93;;
6031;SDS011;3044;43.232;27.972;2022-12-20T01:18:35;20.67;;;12.00;;
6031;SDS011;3044;43.232;27.972;2022-12-20T01:21:04;23.33;;;12.70;;
6031;SDS011;3044;43.232;27.972;2022-12-20T01:23:32;23.90;;;12.37;;
6031;SDS011;3044;43.232;27.972;2022-12-20T01:25:59;21.57;;;11.27;;
6031;SDS011;3044;43.232;27.972;2022-12-20T01:28:29;21.20;;;12.37;;
6031;SDS011;3044;43.232;27.972;2022-12-20T01:30:56;25.53;;;12.70;;
6031;SDS011;3044;43.232;27.972;2022-12-20T01:33:25;25.43;;;12.57;;
6031;SDS011;3044;43.232;27.972;2022-12-20T01:35:54;19.70;;;12.13;;
6031;SDS011;3044;43.232;27.972;2022-12-20T01:38:23;27.37;;;13.13;;
6031;SDS011;3044;43.232;27.972;2022-12-20T01:40:50;22.87;;;12.67;;
6031;SDS011;3044;43.232;27.972;2022-12-20T01:43:19;21.77;;;11.77;;
6031;SDS011;3044;43.232;27.972;2022-12-20T01:45:47;21.63;;;12.30;;
6031;SDS011;3044;43.232;27.972;2022-12-20T01:48:15;23.13;;;12.97;;
6031;SDS011;3044;43.232;27.972;2022-12-20T01:50:48;24.10;;;11.37;;
6031;SDS011;3044;43.232;27.972;2022-12-20T01:53:17;21.27;;;11.33;;
6031;SDS011;3044;43.232;27.972;2022-12-20T01:55:48;30.40;;;13.27;;
6031;SDS011;3044;43.232;27.972;2022-12-20T01:58:15;25.97;;;13.10;;
6031;SDS011;3044;43.232;27.972;2022-12-20T02:00:45;21.40;;;12.10;;
6031;SDS011;3044;43.232;27.972;2022-12-20T02:03:13;19.80;;;11.37;;
6031;SDS011;3044;43.232;27.972;2022-12-20T02:05:41;23.70;;;13.30;;
6031;SDS011;3044;43.232;27.972;2022-12-20T02:08:12;28.27;;;14.50;;
6031;SDS011;3044;43.232;27.972;2022-12-20T02:10:47;21.30;;;12.57;;
6031;SDS011;3044;43.232;27.972;2022-12-20T02:13:28;23.00;;;11.73;;
6031;SDS011;3044;43.232;27.972;2022-12-20T02:16:03;26.10;;;13.60;;
6031;SDS011;3044;43.232;27.972;2022-12-20T02:18:31;23.53;;;12.90;;
6031;SDS011;3044;43.232;27.972;2022-12-20T02:27:27;26.10;;;12.50;;
6031;SDS011;3044;43.232;27.972;2022-12-20T02:30:09;21.73;;;11.90;;
6031;SDS011;3044;43.232;27.972;2022-12-20T02:32:41;24.00;;;11.60;;
6031;SDS011;3044;43.232;27.972;2022-12-20T02:35:14;21.53;;;11.93;;
6031;SDS011;3044;43.232;27.972;2022-12-20T02:37:48;25.50;;;12.30;;
6031;SDS011;3044;43.232;27.972;2022-12-20T02:40:17;23.40;;;12.27;;
6031;SDS011;3044;43.232;27.972;2022-12-20T02:42:48;18.50;;;10.57;;
6031;SDS011;3044;43.232;27.972;2022-12-20T02:45:21;17.87;;;11.13;;
6031;SDS011;3044;43.232;27.972;2022-12-20T02:47:51;20.10;;;10.70;;
6031;SDS011;3044;43.232;27.972;2022-12-20T02:50:22;20.00;;;10.90;;
6031;SDS011;3044;43.232;27.972;2022-12-20T02:52:53;21.10;;;10.37;;
6031;SDS011;3044;43.232;27.972;2022-12-20T02:55:23;19.20;;;10.33;;
6031;SDS011;3044;43.232;27.972;2022-12-20T02:57:59;16.77;;;10.20;;
6031;SDS011;3044;43.232;27.972;2022-12-20T03:00:36;25.93;;;11.80;;
6031;SDS011;3044;43.232;27.972;2022-12-20T03:03:06;21.03;;;11.27;;
6031;SDS011;3044;43.232;27.972;2022-12-20T03:05:49;18.63;;;10.63;;
6031;SDS011;3044;43.232;27.972;2022-12-20T03:08:18;22.70;;;10.57;;
6031;SDS011;3044;43.232;27.972;2022-12-20T03:10:46;20.97;;;10.57;;
6031;SDS011;3044;43.232;27.972;2022-12-20T03:13:14;16.97;;;10.77;;
6031;SDS011;3044;43.232;27.972;2022-12-20T03:15:42;19.37;;;10.70;;
6031;SDS011;3044;43.232;27.972;2022-12-20T03:18:10;21.97;;;11.27;;
6031;SDS011;3044;43.232;27.972;2022-12-20T03:20:37;23.27;;;12.07;;
6031;SDS011;3044;43.232;27.972;2022-12-20T03:23:05;20.73;;;10.73;;
6031;SDS011;3044;43.232;27.972;2022-12-20T03:25:32;20.73;;;10.40;;
6031;SDS011;3044;43.232;27.972;2022-12-20T03:27:59;17.77;;;11.00;;
6031;SDS011;3044;43.232;27.972;2022-12-20T03:30:26;19.70;;;10.90;;
6031;SDS011;3044;43.232;27.972;2022-12-20T03:32:56;15.77;;;10.03;;
6031;SDS011;3044;43.232;27.972;2022-12-20T03:35:23;17.73;;;10.10;;
6031;SDS011;3044;43.232;27.972;2022-12-20T03:37:50;17.80;;;10.90;;
6031;SDS011;3044;43.232;27.972;2022-12-20T03:40:17;21.53;;;12.10;;
6031;SDS011;3044;43.232;27.972;2022-12-20T03:42:44;21.30;;;10.80;;
6031;SDS011;3044;43.232;27.972;2022-12-20T03:45:11;20.37;;;10.80;;
6031;SDS011;3044;43.232;27.972;2022-12-20T03:47:39;18.80;;;10.40;;
6031;SDS011;3044;43.232;27.972;2022-12-20T03:50:09;19.83;;;11.53;;
6031;SDS011;3044;43.232;27.972;2022-12-20T03:52:36;19.37;;;11.53;;
6031;SDS011;3044;43.232;27.972;2022-12-20T03:55:04;18.63;;;10.57;;
6031;SDS011;3044;43.232;27.972;2022-12-20T03:57:32;21.77;;;11.70;;
6031;SDS011;3044;43.232;27.972;2022-12-20T03:59:59;19.43;;;11.30;;
6031;SDS011;3044;43.232;27.972;2022-12-20T04:02:26;19.57;;;10.90;;
6031;SDS011;3044;43.232;27.972;2022-12-20T04:04:53;17.93;;;11.23;;
6031;SDS011;3044;43.232;27.972;2022-12-20T04:07:22;22.30;;;12.00;;
6031;SDS011;3044;43.232;27.972;2022-12-20T04:09:49;21.10;;;11.70;;
6031;SDS011;3044;43.232;27.972;2022-12-20T04:12:16;26.37;;;12.23;;
6031;SDS011;3044;43.232;27.972;2022-12-20T04:14:43;20.03;;;12.13;;
6031;SDS011;3044;43.232;27.972;2022-12-20T04:17:10;21.80;;;11.50;;
6031;SDS011;3044;43.232;27.972;2022-12-20T04:19:37;18.80;;;11.80;;
6031;SDS011;3044;43.232;27.972;2022-12-20T04:22:04;22.60;;;14.17;;
6031;SDS011;3044;43.232;27.972;2022-12-20T04:24:33;22.97;;;11.70;;
6031;SDS011;3044;43.232;27.972;2022-12-20T04:27:00;27.60;;;13.83;;
6031;SDS011;3044;43.232;27.972;2022-12-20T04:29:27;26.40;;;12.97;;
6031;SDS011;3044;43.232;27.972;2022-12-20T04:31:54;24.97;;;12.63;;
6031;SDS011;3044;43.232;27.972;2022-12-20T04:34:21;24.43;;;12.80;;
6031;SDS011;3044;43.232;27.972;2022-12-20T04:36:48;19.00;;;10.60;;
6031;SDS011;3044;43.232;27.972;2022-12-20T04:39:16;20.47;;;10.70;;
6031;SDS011;3044;43.232;27.972;2022-12-20T04:41:44;23.27;;;12.70;;
6031;SDS011;3044;43.232;27.972;2022-12-20T04:44:11;22.67;;;11.40;;
6031;SDS011;3044;43.232;27.972;2022-12-20T04:46:39;23.83;;;13.07;;
6031;SDS011;3044;43.232;27.972;2022-12-20T04:49:06;22.30;;;11.43;;
6031;SDS011;3044;43.232;27.972;2022-12-20T04:51:33;23.93;;;12.13;;
6031;SDS011;3044;43.232;27.972;2022-12-20T04:54:00;19.13;;;10.90;;
6031;SDS011;3044;43.232;27.972;2022-12-20T04:56:26;22.40;;;11.87;;
6031;SDS011;3044;43.232;27.972;2022-12-20T04:58:56;24.07;;;12.20;;
6031;SDS011;3044;43.232;27.972;2022-12-20T05:01:24;21.33;;;11.90;;
6031;SDS011;3044;43.232;27.972;2022-12-20T05:03:51;19.80;;;11.27;;
6031;SDS011;3044;43.232;27.972;2022-12-20T05:06:18;20.80;;;11.33;;
6031;SDS011;3044;43.232;27.972;2022-12-20T05:08:45;17.83;;;9.70;;
6031;SDS011;3044;43.232;27.972;2022-12-20T05:11:13;24.47;;;12.37;;
6031;SDS011;3044;43.232;27.972;2022-12-20T05:13:40;18.40;;;10.53;;
6031;SDS011;3044;43.232;27.972;2022-12-20T05:16:08;20.63;;;11.90;;
6031;SDS011;3044;43.232;27.972;2022-12-20T05:18:36;23.50;;;11.00;;
6031;SDS011;3044;43.232;27.972;2022-12-20T05:21:03;20.10;;;11.47;;
6031;SDS011;3044;43.232;27.972;2022-12-20T05:23:44;20.00;;;10.60;;
6031;SDS011;3044;43.232;27.972;2022-12-20T05:26:30;16.67;;;10.97;;
6031;SDS011;3044;43.232;27.972;2022-12-20T05:28:59;20.53;;;11.33;;
6031;SDS011;3044;43.232;27.972;2022-12-20T05:31:27;20.37;;;10.63;;
6031;SDS011;3044;43.232;27.972;2022-12-20T05:33:55;19.20;;;11.10;;
6031;SDS011;3044;43.232;27.972;2022-12-20T05:36:22;20.93;;;12.00;;
6031;SDS011;3044;43.232;27.972;2022-12-20T05:38:49;22.80;;;12.13;;
6031;SDS011;3044;43.232;27.972;2022-12-20T05:41:16;18.30;;;11.40;;
6031;SDS011;3044;43.232;27.972;2022-12-20T05:43:44;24.87;;;11.20;;
6031;SDS011;3044;43.232;27.972;2022-12-20T05:46:11;20.47;;;10.70;;
6031;SDS011;3044;43.232;27.972;2022-12-20T05:48:39;22.90;;;11.27;;
6031;SDS011;3044;43.232;27.972;2022-12-20T05:51:07;22.20;;;10.73;;
6031;SDS011;3044;43.232;27.972;2022-12-20T05:53:34;19.37;;;11.33;;
6031;SDS011;3044;43.232;27.972;2022-12-20T05:56:01;17.57;;;11.63;;
6031;SDS011;3044;43.232;27.972;2022-12-20T05:58:28;22.10;;;12.43;;
6031;SDS011;3044;43.232;27.972;2022-12-20T06:00:55;29.47;;;12.10;;
6031;SDS011;3044;43.232;27.972;2022-12-20T06:03:22;16.87;;;10.90;;
6031;SDS011;3044;43.232;27.972;2022-12-20T06:05:51;22.13;;;10.93;;
6031;SDS011;3044;43.232;27.972;2022-12-20T06:08:18;19.87;;;11.87;;
6031;SDS011;3044;43.232;27.972;2022-12-20T06:10:47;20.97;;;11.73;;
6031;SDS011;3044;43.232;27.972;2022-12-20T06:13:15;22.00;;;11.33;;
6031;SDS011;3044;43.232;27.972;2022-12-20T06:15:42;19.30;;;11.27;;
6031;SDS011;3044;43.232;27.972;2022-12-20T06:18:11;18.97;;;11.93;;
6031;SDS011;3044;43.232;27.972;2022-12-20T06:20:38;22.63;;;12.00;;
6031;SDS011;3044;43.232;27.972;2022-12-20T06:23:07;20.83;;;11.57;;
6031;SDS011;3044;43.232;27.972;2022-12-20T06:25:36;22.47;;;11.90;;
6031;SDS011;3044;43.232;27.972;2022-12-20T06:28:04;23.23;;;12.33;;
6031;SDS011;3044;43.232;27.972;2022-12-20T06:30:32;25.77;;;13.40;;
6031;SDS011;3044;43.232;27.972;2022-12-20T06:33:00;23.70;;;12.37;;
6031;SDS011;3044;43.232;27.972;2022-12-20T06:35:27;23.03;;;13.00;;
6031;SDS011;3044;43.232;27.972;2022-12-20T06:37:54;21.60;;;12.37;;
6031;SDS011;3044;43.232;27.972;2022-12-20T06:40:23;24.03;;;12.10;;
6031;SDS011;3044;43.232;27.972;2022-12-20T06:42:50;24.97;;;11.53;;
6031;SDS011;3044;43.232;27.972;2022-12-20T06:45:18;24.77;;;12.80;;
6031;SDS011;3044;43.232;27.972;2022-12-20T06:47:45;19.43;;;11.67;;
6031;SDS011;3044;43.232;27.972;2022-12-20T06:50:12;21.13;;;11.80;;
6031;SDS011;3044;43.232;27.972;2022-12-20T06:52:39;17.37;;;11.20;;
6031;SDS011;3044;43.232;27.972;2022-12-20T06:55:06;14.93;;;9.93;;
6031;SDS011;3044;43.232;27.972;2022-12-20T06:57:35;14.33;;;9.50;;
6031;SDS011;3044;43.232;27.972;2022-12-20T07:00:02;18.17;;;10.73;;
6031;SDS011;3044;43.232;27.972;2022-12-20T07:02:30;21.13;;;10.43;;
6031;SDS011;3044;43.232;27.972;2022-12-20T07:04:58;31.77;;;10.80;;
6031;SDS011;3044;43.232;27.972;2022-12-20T07:07:25;17.43;;;10.23;;
6031;SDS011;3044;43.232;27.972;2022-12-20T07:09:52;21.27;;;10.83;;
6031;SDS011;3044;43.232;27.972;2022-12-20T07:12:19;17.40;;;10.30;;
6031;SDS011;3044;43.232;27.972;2022-12-20T07:14:49;19.50;;;11.20;;
6031;SDS011;3044;43.232;27.972;2022-12-20T07:17:16;23.93;;;11.40;;
6031;SDS011;3044;43.232;27.972;2022-12-20T07:19:43;18.00;;;10.90;;
6031;SDS011;3044;43.232;27.972;2022-12-20T07:22:10;21.63;;;10.43;;
6031;SDS011;3044;43.232;27.972;2022-12-20T07:24:38;17.80;;;10.20;;
6031;SDS011;3044;43.232;27.972;2022-12-20T07:27:05;16.00;;;9.60;;
6031;SDS011;3044;43.232;27.972;2022-12-20T07:29:32;15.90;;;9.93;;
6031;SDS011;3044;43.232;27.972;2022-12-20T07:32:01;20.30;;;10.07;;
6031;SDS011;3044;43.232;27.972;2022-12-20T07:34:29;18.00;;;10.13;;
6031;SDS011;3044;43.232;27.972;2022-12-20T07:36:56;14.03;;;9.43;;
6031;SDS011;3044;43.232;27.972;2022-12-20T07:39:23;14.00;;;9.10;;
6031;SDS011;3044;43.232;27.972;2022-12-20T07:41:52;17.67;;;10.03;;
6031;SDS011;3044;43.232;27.972;2022-12-20T07:44:19;13.53;;;8.80;;
6031;SDS011;3044;43.232;27.972;2022-12-20T07:46:46;17.90;;;9.80;;
6031;SDS011;3044;43.232;27.972;2022-12-20T07:49:15;16.33;;;8.63;;
6031;SDS011;3044;43.232;27.972;2022-12-20T07:51:43;12.60;;;8.10;;
6031;SDS011;3044;43.232;27.972;2022-12-20T07:54:14;14.80;;;7.83;;
6031;SDS011;3044;43.232;27.972;2022-12-20T07:56:46;11.30;;;7.17;;
6031;SDS011;3044;43.232;27.972;2022-12-20T07:59:16;10.17;;;8.10;;
6031;SDS011;3044;43.232;27.972;2022-12-20T08:01:47;15.93;;;8.03;;
6031;SDS011;3044;43.232;27.972;2022-12-20T08:04:17;15.60;;;8.40;;
6031;SDS011;3044;43.232;27.972;2022-12-20T08:06:47;14.83;;;7.57;;
6031;SDS011;3044;43.232;27.972;2022-12-20T08:09:15;14.60;;;7.97;;
6031;SDS011;3044;43.232;27.972;2022-12-20T08:11:44;13.90;;;8.50;;
6031;SDS011;3044;43.232;27.972;2022-12-20T08:14:13;14.60;;;8.70;;
6031;SDS011;3044;43.232;27.972;2022-12-20T08:16:41;10.87;;;7.27;;
6031;SDS011;3044;43.232;27.972;2022-12-20T08:19:08;12.77;;;7.10;;
6031;SDS011;3044;43.232;27.972;2022-12-20T08:21:38;19.30;;;8.17;;
6031;SDS011;3044;43.232;27.972;2022-12-20T08:24:05;12.70;;;7.93;;
6031;SDS011;3044;43.232;27.972;2022-12-20T08:26:35;15.20;;;6.97;;
6031;SDS011;3044;43.232;27.972;2022-12-20T08:29:03;11.50;;;7.40;;
6031;SDS011;3044;43.232;27.972;2022-12-20T08:31:30;15.57;;;7.73;;
6031;SDS011;3044;43.232;27.972;2022-12-20T08:33:58;16.60;;;7.90;;
6031;SDS011;3044;43.232;27.972;2022-12-20T08:36:25;10.50;;;7.10;;
6031;SDS011;3044;43.232;27.972;2022-12-20T08:38:53;10.87;;;7.50;;
6031;SDS011;3044;43.232;27.972;2022-12-20T08:41:20;10.87;;;7.07;;
6031;SDS011;3044;43.232;27.972;2022-12-20T08:43:47;11.43;;;7.67;;
6031;SDS011;3044;43.232;27.972;2022-12-20T08:46:15;14.10;;;8.80;;
6031;SDS011;3044;43.232;27.972;2022-12-20T08:48:42;14.27;;;7.87;;
6031;SDS011;3044;43.232;27.972;2022-12-20T08:51:09;11.77;;;7.80;;
6031;SDS011;3044;43.232;27.972;2022-12-20T08:53:37;16.30;;;8.80;;
6031;SDS011;3044;43.232;27.972;2022-12-20T08:56:06;13.33;;;8.70;;
6031;SDS011;3044;43.232;27.972;2022-12-20T08:58:35;14.30;;;7.30;;
6031;SDS011;3044;43.232;27.972;2022-12-20T09:01:04;10.63;;;6.77;;
6031;SDS011;3044;43.232;27.972;2022-12-20T09:03:34;16.80;;;7.33;;
6031;SDS011;3044;43.232;27.972;2022-12-20T09:06:04;11.43;;;7.67;;
6031;SDS011;3044;43.232;27.972;2022-12-20T09:08:32;15.20;;;8.30;;
6031;SDS011;3044;43.232;27.972;2022-12-20T09:11:03;9.53;;;6.60;;
6031;SDS011;3044;43.232;27.972;2022-12-20T09:13:33;10.50;;;7.57;;
6031;SDS011;3044;43.232;27.972;2022-12-20T09:16:00;14.77;;;7.90;;
6031;SDS011;3044;43.232;27.972;2022-12-20T09:18:28;12.70;;;6.03;;
6031;SDS011;3044;43.232;27.972;2022-12-20T09:20:58;11.50;;;7.43;;
6031;SDS011;3044;43.232;27.972;2022-12-20T09:23:26;10.83;;;8.13;;
6031;SDS011;3044;43.232;27.972;2022-12-20T09:25:53;17.27;;;8.70;;
6031;SDS011;3044;43.232;27.972;2022-12-20T09:28:21;23.93;;;9.60;;
6031;SDS011;3044;43.232;27.972;2022-12-20T09:30:49;16.27;;;8.37;;
6031;SDS011;3044;43.232;27.972;2022-12-20T09:33:16;11.00;;;6.90;;
6031;SDS011;3044;43.232;27.972;2022-12-20T09:35:44;19.67;;;10.00;;
6031;SDS011;3044;43.232;27.972;2022-12-20T09:38:12;15.90;;;8.37;;
6031;SDS011;3044;43.232;27.972;2022-12-20T09:40:43;9.03;;;7.00;;
6031;SDS011;3044;43.232;27.972;2022-12-20T09:43:11;10.80;;;6.50;;
6031;SDS011;3044;43.232;27.972;2022-12-20T09:45:40;15.60;;;6.80;;
6031;SDS011;3044;43.232;27.972;2022-12-20T09:48:10;13.90;;;6.70;;
6031;SDS011;3044;43.232;27.972;2022-12-20T09:50:46;10.67;;;7.00;;
6031;SDS011;3044;43.232;27.972;2022-12-20T09:53:25;10.13;;;6.90;;
6031;SDS011;3044;43.232;27.972;2022-12-20T09:56:04;9.27;;;5.83;;
6031;SDS011;3044;43.232;27.972;2022-12-20T09:58:40;8.00;;;5.50;;
6031;SDS011;3044;43.232;27.972;2022-12-20T10:01:22;8.17;;;4.90;;
6031;SDS011;3044;43.232;27.972;2022-12-20T10:03:52;8.27;;;5.60;;
6031;SDS011;3044;43.232;27.972;2022-12-20T10:06:23;8.17;;;6.00;;
6031;SDS011;3044;43.232;27.972;2022-12-20T10:09:02;20.40;;;7.80;;
6031;SDS011;3044;43.232;27.972;2022-12-20T10:14:29;10.57;;;6.70;;
6031;SDS011;3044;43.232;27.972;2022-12-20T10:17:09;10.30;;;6.37;;
6031;SDS011;3044;43.232;27.972;2022-12-20T10:19:49;11.23;;;7.10;;
6031;SDS011;3044;43.232;27.972;2022-12-20T10:22:27;9.93;;;5.30;;
6031;SDS011;3044;43.232;27.972;2022-12-20T10:25:00;8.67;;;5.23;;
6031;SDS011;3044;43.232;27.972;2022-12-20T10:27:39;17.70;;;6.87;;
6031;SDS011;3044;43.232;27.972;2022-12-20T10:30:10;11.50;;;6.83;;
6031;SDS011;3044;43.232;27.972;2022-12-20T10:32:39;11.93;;;6.60;;
6031;SDS011;3044;43.232;27.972;2022-12-20T10:35:20;10.33;;;6.80;;
6031;SDS011;3044;43.232;27.972;2022-12-20T10:37:56;14.80;;;6.40;;
6031;SDS011;3044;43.232;27.972;2022-12-20T10:40:25;22.43;;;7.63;;
6031;SDS011;3044;43.232;27.972;2022-12-20T10:42:54;12.03;;;5.77;;
6031;SDS011;3044;43.232;27.972;2022-12-20T10:48:21;11.23;;;5.90;;
6031;SDS011;3044;43.232;27.972;2022-12-20T10:50:55;7.83;;;5.40;;
6031;SDS011;3044;43.232;27.972;2022-12-20T10:53:24;10.77;;;6.50;;
6031;SDS011;3044;43.232;27.972;2022-12-20T10:55:53;9.93;;;6.57;;
6031;SDS011;3044;43.232;27.972;2022-12-20T10:58:38;22.27;;;6.20;;
6031;SDS011;3044;43.232;27.972;2022-12-20T11:01:10;7.80;;;5.57;;
6031;SDS011;3044;43.232;27.972;2022-12-20T11:03:59;16.00;;;7.73;;
6031;SDS011;3044;43.232;27.972;2022-12-20T11:06:39;9.33;;;6.77;;
6031;SDS011;3044;43.232;27.972;2022-12-20T11:09:20;8.87;;;6.47;;
6031;SDS011;3044;43.232;27.972;2022-12-20T11:12:03;9.53;;;6.70;;
6031;SDS011;3044;43.232;27.972;2022-12-20T11:14:32;9.47;;;6.53;;
6031;SDS011;3044;43.232;27.972;2022-12-20T11:17:02;9.67;;;6.70;;
6031;SDS011;3044;43.232;27.972;2022-12-20T11:19:39;12.47;;;7.63;;
6031;SDS011;3044;43.232;27.972;2022-12-20T11:22:30;12.13;;;7.20;;
6031;SDS011;3044;43.232;27.972;2022-12-20T11:25:14;12.50;;;7.90;;
6031;SDS011;3044;43.232;27.972;2022-12-20T11:27:56;13.80;;;6.10;;
6031;SDS011;3044;43.232;27.972;2022-12-20T11:30:37;16.47;;;7.10;;
6031;SDS011;3044;43.232;27.972;2022-12-20T11:33:23;9.80;;;6.10;;
6031;SDS011;3044;43.232;27.972;2022-12-20T11:36:02;14.77;;;6.47;;
6031;SDS011;3044;43.232;27.972;2022-12-20T11:38:38;16.27;;;6.70;;
6031;SDS011;3044;43.232;27.972;2022-12-20T11:41:12;10.00;;;6.80;;
6031;SDS011;3044;43.232;27.972;2022-12-20T11:43:52;8.70;;;6.20;;
6031;SDS011;3044;43.232;27.972;2022-12-20T11:46:46;12.47;;;6.90;;
6031;SDS011;3044;43.232;27.972;2022-12-20T11:52:27;8.07;;;5.53;;
6031;SDS011;3044;43.232;27.972;2022-12-20T11:55:05;13.83;;;7.43;;
6031;SDS011;3044;43.232;27.972;2022-12-20T11:57:45;9.53;;;5.83;;
6031;SDS011;3044;43.232;27.972;2022-12-20T12:00:20;9.63;;;6.03;;
6031;SDS011;3044;43.232;27.972;2022-12-20T12:02:50;17.33;;;6.10;;
6031;SDS011;3044;43.232;27.972;2022-12-20T12:05:23;7.77;;;5.90;;
6031;SDS011;3044;43.232;27.972;2022-12-20T12:07:55;8.77;;;6.63;;
6031;SDS011;3044;43.232;27.972;2022-12-20T12:10:29;11.60;;;6.83;;
6031;SDS011;3044;43.232;27.972;2022-12-20T12:13:02;10.50;;;6.03;;
6031;SDS011;3044;43.232;27.972;2022-12-20T12:15:45;11.90;;;7.97;;
6031;SDS011;3044;43.232;27.972;2022-12-20T12:18:18;10.13;;;6.77;;
6031;SDS011;3044;43.232;27.972;2022-12-20T12:20:51;7.83;;;6.00;;
6031;SDS011;3044;43.232;27.972;2022-12-20T12:23:23;13.20;;;7.07;;
6031;SDS011;3044;43.232;27.972;2022-12-20T12:25:58;12.00;;;6.87;;
6031;SDS011;3044;43.232;27.972;2022-12-20T12:28:31;8.50;;;6.63;;
6031;SDS011;3044;43.232;27.972;2022-12-20T12:31:02;13.43;;;6.77;;
6031;SDS011;3044;43.232;27.972;2022-12-20T12:33:34;14.53;;;6.03;;
6031;SDS011;3044;43.232;27.972;2022-12-20T12:36:14;11.87;;;6.20;;
6031;SDS011;3044;43.232;27.972;2022-12-20T12:38:59;13.13;;;6.87;;
6031;SDS011;3044;43.232;27.972;2022-12-20T12:44:42;9.23;;;5.40;;
6031;SDS011;3044;43.232;27.972;2022-12-20T12:47:17;11.77;;;6.27;;
6031;SDS011;3044;43.232;27.972;2022-12-20T12:49:49;10.80;;;6.20;;
6031;SDS011;3044;43.232;27.972;2022-12-20T13:01:09;10.73;;;6.10;;
6031;SDS011;3044;43.232;27.972;2022-12-20T13:03:39;9.80;;;5.83;;
6031;SDS011;3044;43.232;27.972;2022-12-20T13:09:15;11.57;;;6.37;;
6031;SDS011;3044;43.232;27.972;2022-12-20T13:11:46;11.23;;;6.70;;
6031;SDS011;3044;43.232;27.972;2022-12-20T13:20:18;12.83;;;6.93;;
6031;SDS011;3044;43.232;27.972;2022-12-20T13:25:42;12.60;;;7.80;;
6031;SDS011;3044;43.232;27.972;2022-12-20T13:31:30;18.53;;;7.87;;
6031;SDS011;3044;43.232;27.972;2022-12-20T13:34:22;11.93;;;7.40;;
6031;SDS011;3044;43.232;27.972;2022-12-20T13:39:52;11.20;;;7.30;;
6031;SDS011;3044;43.232;27.972;2022-12-20T13:45:04;12.47;;;6.77;;
6031;SDS011;3044;43.232;27.972;2022-12-20T13:47:43;23.40;;;7.33;;
6031;SDS011;3044;43.232;27.972;2022-12-20T13:53:03;15.20;;;6.43;;
6031;SDS011;3044;43.232;27.972;2022-12-20T13:55:35;14.77;;;6.70;;
6031;SDS011;3044;43.232;27.972;2022-12-20T13:58:09;9.40;;;6.00;;
6031;SDS011;3044;43.232;27.972;2022-12-20T14:00:39;10.13;;;7.30;;
6031;SDS011;3044;43.232;27.972;2022-12-20T14:03:18;11.87;;;6.70;;
6031;SDS011;3044;43.232;27.972;2022-12-20T14:05:49;15.47;;;6.40;;
6031;SDS011;3044;43.232;27.972;2022-12-20T14:08:22;11.90;;;6.60;;
6031;SDS011;3044;43.232;27.972;2022-12-20T14:10:53;8.70;;;6.30;;
6031;SDS011;3044;43.232;27.972;2022-12-20T14:13:21;10.77;;;7.23;;
6031;SDS011;3044;43.232;27.972;2022-12-20T14:15:50;10.63;;;6.40;;
6031;SDS011;3044;43.232;27.972;2022-12-20T14:18:18;8.90;;;6.17;;
6031;SDS011;3044;43.232;27.972;2022-12-20T14:20:49;16.27;;;7.27;;
6031;SDS011;3044;43.232;27.972;2022-12-20T14:23:19;14.00;;;7.60;;
6031;SDS011;3044;43.232;27.972;2022-12-20T14:25:49;14.90;;;8.00;;
6031;SDS011;3044;43.232;27.972;2022-12-20T14:28:27;29.33;;;8.27;;
6031;SDS011;3044;43.232;27.972;2022-12-20T14:30:57;8.60;;;6.40;;
6031;SDS011;3044;43.232;27.972;2022-12-20T14:33:29;10.23;;;7.67;;
6031;SDS011;3044;43.232;27.972;2022-12-20T14:36:07;15.10;;;7.00;;
6031;SDS011;3044;43.232;27.972;2022-12-20T14:38:36;15.93;;;7.97;;
6031;SDS011;3044;43.232;27.972;2022-12-20T14:44:01;12.77;;;6.87;;
6031;SDS011;3044;43.232;27.972;2022-12-20T14:46:38;9.90;;;7.70;;
6031;SDS011;3044;43.232;27.972;2022-12-20T14:49:15;13.50;;;8.17;;
6031;SDS011;3044;43.232;27.972;2022-12-20T14:51:48;13.90;;;7.63;;
6031;SDS011;3044;43.232;27.972;2022-12-20T14:54:17;17.03;;;7.13;;
6031;SDS011;3044;43.232;27.972;2022-12-20T14:56:46;18.00;;;7.30;;
6031;SDS011;3044;43.232;27.972;2022-12-20T14:59:16;10.30;;;6.90;;
6031;SDS011;3044;43.232;27.972;2022-12-20T15:01:50;11.20;;;6.93;;
6031;SDS011;3044;43.232;27.972;2022-12-20T15:04:25;14.03;;;6.80;;
6031;SDS011;3044;43.232;27.972;2022-12-20T15:06:59;15.07;;;7.03;;
6031;SDS011;3044;43.232;27.972;2022-12-20T15:09:27;14.80;;;8.53;;
6031;SDS011;3044;43.232;27.972;2022-12-20T15:11:54;15.30;;;8.13;;
6031;SDS011;3044;43.232;27.972;2022-12-20T15:14:32;10.20;;;7.03;;
6031;SDS011;3044;43.232;27.972;2022-12-20T15:17:02;13.73;;;7.60;;
6031;SDS011;3044;43.232;27.972;2022-12-20T15:19:29;12.53;;;7.50;;
6031;SDS011;3044;43.232;27.972;2022-12-20T15:21:58;14.13;;;8.33;;
6031;SDS011;3044;43.232;27.972;2022-12-20T15:24:26;17.70;;;8.00;;
6031;SDS011;3044;43.232;27.972;2022-12-20T15:26:54;19.03;;;9.80;;
6031;SDS011;3044;43.232;27.972;2022-12-20T15:29:22;15.50;;;9.93;;
6031;SDS011;3044;43.232;27.972;2022-12-20T15:31:51;12.93;;;9.00;;
6031;SDS011;3044;43.232;27.972;2022-12-20T15:34:26;18.50;;;9.17;;
6031;SDS011;3044;43.232;27.972;2022-12-20T15:36:55;14.57;;;7.77;;
6031;SDS011;3044;43.232;27.972;2022-12-20T15:39:25;14.00;;;7.83;;
6031;SDS011;3044;43.232;27.972;2022-12-20T15:41:52;13.83;;;8.53;;
6031;SDS011;3044;43.232;27.972;2022-12-20T15:44:21;15.97;;;8.57;;
6031;SDS011;3044;43.232;27.972;2022-12-20T15:46:50;18.50;;;10.03;;
6031;SDS011;3044;43.232;27.972;2022-12-20T15:49:18;15.03;;;9.90;;
6031;SDS011;3044;43.232;27.972;2022-12-20T15:51:47;25.57;;;8.57;;
6031;SDS011;3044;43.232;27.972;2022-12-20T15:54:19;13.27;;;8.40;;
6031;SDS011;3044;43.232;27.972;2022-12-20T15:56:52;15.73;;;10.03;;